sensor_id;sensor_type;location;lat;lon;timestamp;temperature;humidity
10889;DHT22;5497;51.388;6.780;2023-04-15T00:01:08;7.50;99.80
10889;DHT22;5497;51.388;6.780;2023-04-15T00:03:36;7.50;99.90
10889;DHT22;5497;51.388;6.780;2023-04-15T00:06:04;7.50;99.90
10889;DHT22;5497;51.388;6.780;2023-04-15T00:08:31;7.50;99.90
10889;DHT22;5497;51.388;6.780;2023-04-15T00:10:58;7.50;99.90
10889;DHT22;5497;51.388;6.780;2023-04-15T00:13:27;7.50;99.90
10889;DHT22;5497;51.388;6.780;2023-04-15T00:15:54;7.50;99.90
10889;DHT22;5497;51.388;6.780;2023-04-15T00:18:22;7.50;99.90
10889;DHT22;5497;51.388;6.780;2023-04-15T00:20:49;7.50;99.90
10889;DHT22;5497;51.388;6.780;2023-04-15T00:23:16;7.50;99.90
10889;DHT22;5497;51.388;6.780;2023-04-15T00:25:43;7.50;99.90
10889;DHT22;5497;51.388;6.780;2023-04-15T00:28:10;7.50;99.90
10889;DHT22;5497;51.388;6.780;2023-04-15T00:30:38;7.50;99.90
10889;DHT22;5497;51.388;6.780;2023-04-15T00:33:05;7.50;99.90
10889;DHT22;5497;51.388;6.780;2023-04-15T00:35:33;7.50;99.90
10889;DHT22;5497;51.388;6.780;2023-04-15T00:38:02;7.50;99.90
10889;DHT22;5497;51.388;6.780;2023-04-15T00:40:29;7.50;99.90
10889;DHT22;5497;51.388;6.780;2023-04-15T00:42:56;7.50;99.90
10889;DHT22;5497;51.388;6.780;2023-04-15T00:45:24;7.50;99.90
10889;DHT22;5497;51.388;6.780;2023-04-15T00:47:52;7.40;99.90
10889;DHT22;5497;51.388;6.780;2023-04-15T00:50:20;7.40;99.90
10889;DHT22;5497;51.388;6.780;2023-04-15T00:52:48;7.30;99.90
10889;DHT22;5497;51.388;6.780;2023-04-15T00:55:16;7.30;99.90
10889;DHT22;5497;51.388;6.780;2023-04-15T00:57:43;7.20;99.90
10889;DHT22;5497;51.388;6.780;2023-04-15T01:00:11;7.20;99.90
10889;DHT22;5497;51.388;6.780;2023-04-15T01:02:38;7.20;99.90
10889;DHT22;5497;51.388;6.780;2023-04-15T01:05:05;7.20;99.90
10889;DHT22;5497;51.388;6.780;2023-04-15T01:07:32;7.20;99.90
10889;DHT22;5497;51.388;6.780;2023-04-15T01:10:00;7.20;99.90
10889;DHT22;5497;51.388;6.780;2023-04-15T01:12:27;7.10;99.90
10889;DHT22;5497;51.388;6.780;2023-04-15T01:14:55;7.00;99.90
10889;DHT22;5497;51.388;6.780;2023-04-15T01:17:23;7.00;99.90
10889;DHT22;5497;51.388;6.780;2023-04-15T01:19:50;6.90;99.90
10889;DHT22;5497;51.388;6.780;2023-04-15T01:22:17;6.80;99.90
10889;DHT22;5497;51.388;6.780;2023-04-15T01:24:44;6.80;99.90
10889;DHT22;5497;51.388;6.780;2023-04-15T01:27:17;6.80;99.90
10889;DHT22;5497;51.388;6.780;2023-04-15T01:29:43;6.80;99.90
10889;DHT22;5497;51.388;6.780;2023-04-15T01:32:10;7.20;99.90
10889;DHT22;5497;51.388;6.780;2023-04-15T01:34:38;6.80;99.90
10889;DHT22;5497;51.388;6.780;2023-04-15T01:37:05;6.70;99.90
10889;DHT22;5497;51.388;6.780;2023-04-15T01:39:32;6.70;99.90
10889;DHT22;5497;51.388;6.780;2023-04-15T01:41:59;6.70;99.90
10889;DHT22;5497;51.388;6.780;2023-04-15T01:44:27;6.60;99.90
10889;DHT22;5497;51.388;6.780;2023-04-15T01:46:54;6.60;99.90
10889;DHT22;5497;51.388;6.780;2023-04-15T01:49:21;6.60;99.90
10889;DHT22;5497;51.388;6.780;2023-04-15T01:51:48;6.50;99.90
10889;DHT22;5497;51.388;6.780;2023-04-15T01:54:15;6.50;99.90
10889;DHT22;5497;51.388;6.780;2023-04-15T01:56:43;6.50;99.90
10889;DHT22;5497;51.388;6.780;2023-04-15T01:59:10;6.50;99.90
10889;DHT22;5497;51.388;6.780;2023-04-15T02:01:39;6.40;99.90
10889;DHT22;5497;51.388;6.780;2023-04-15T02:07:38;6.40;99.90
10889;DHT22;5497;51.388;6.780;2023-04-15T02:10:09;6.40;99.90
10889;DHT22;5497;51.388;6.780;2023-04-15T02:12:37;6.40;99.90
10889;DHT22;5497;51.388;6.780;2023-04-15T02:15:05;6.40;99.90
10889;DHT22;5497;51.388;6.780;2023-04-15T02:17:34;6.40;99.90
10889;DHT22;5497;51.388;6.780;2023-04-15T02:20:01;6.40;99.90
10889;DHT22;5497;51.388;6.780;2023-04-15T02:22:30;6.40;99.90
10889;DHT22;5497;51.388;6.780;2023-04-15T02:24:57;6.40;99.90
10889;DHT22;5497;51.388;6.780;2023-04-15T02:27:24;6.40;99.90
10889;DHT22;5497;51.388;6.780;2023-04-15T02:29:52;6.40;99.90
10889;DHT22;5497;51.388;6.780;2023-04-15T02:32:21;6.40;99.90
10889;DHT22;5497;51.388;6.780;2023-04-15T02:34:50;6.30;99.90
10889;DHT22;5497;51.388;6.780;2023-04-15T02:37:17;6.30;99.90
10889;DHT22;5497;51.388;6.780;2023-04-15T02:39:46;6.30;99.90
10889;DHT22;5497;51.388;6.780;2023-04-15T02:42:14;6.30;99.90
10889;DHT22;5497;51.388;6.780;2023-04-15T02:44:41;6.30;99.90
10889;DHT22;5497;51.388;6.780;2023-04-15T02:47:08;6.30;99.90
10889;DHT22;5497;51.388;6.780;2023-04-15T02:49:36;6.30;99.90
10889;DHT22;5497;51.388;6.780;2023-04-15T02:52:05;6.20;99.90
10889;DHT22;5497;51.388;6.780;2023-04-15T02:54:32;6.30;99.90
10889;DHT22;5497;51.388;6.780;2023-04-15T02:56:59;6.30;99.90
10889;DHT22;5497;51.388;6.780;2023-04-15T02:59:26;6.30;99.90
10889;DHT22;5497;51.388;6.780;2023-04-15T03:01:54;6.30;99.90
10889;DHT22;5497;51.388;6.780;2023-04-15T03:04:25;6.30;99.90
10889;DHT22;5497;51.388;6.780;2023-04-15T03:06:54;6.30;99.90
10889;DHT22;5497;51.388;6.780;2023-04-15T03:09:23;6.30;99.90
10889;DHT22;5497;51.388;6.780;2023-04-15T03:11:51;6.20;99.90
10889;DHT22;5497;51.388;6.780;2023-04-15T03:14:19;6.30;99.90
10889;DHT22;5497;51.388;6.780;2023-04-15T03:16:47;6.30;99.90
10889;DHT22;5497;51.388;6.780;2023-04-15T03:19:16;6.20;99.90
10889;DHT22;5497;51.388;6.780;2023-04-15T03:21:43;6.20;99.90
10889;DHT22;5497;51.388;6.780;2023-04-15T03:24:10;6.20;99.90
10889;DHT22;5497;51.388;6.780;2023-04-15T03:26:40;6.20;99.90
10889;DHT22;5497;51.388;6.780;2023-04-15T03:29:10;6.20;99.90
10889;DHT22;5497;51.388;6.780;2023-04-15T03:31:38;6.20;99.90
10889;DHT22;5497;51.388;6.780;2023-04-15T03:34:05;6.10;99.90
10889;DHT22;5497;51.388;6.780;2023-04-15T03:36:32;6.10;99.90
10889;DHT22;5497;51.388;6.780;2023-04-15T03:39:00;6.10;99.90
10889;DHT22;5497;51.388;6.780;2023-04-15T03:41:27;6.00;99.90
10889;DHT22;5497;51.388;6.780;2023-04-15T03:43:55;6.00;99.90
10889;DHT22;5497;51.388;6.780;2023-04-15T03:46:22;6.00;99.90
10889;DHT22;5497;51.388;6.780;2023-04-15T03:48:49;6.00;99.90
10889;DHT22;5497;51.388;6.780;2023-04-15T03:51:16;6.00;99.90
10889;DHT22;5497;51.388;6.780;2023-04-15T03:53:43;6.00;99.90
10889;DHT22;5497;51.388;6.780;2023-04-15T03:56:10;6.00;99.90
10889;DHT22;5497;51.388;6.780;2023-04-15T03:58:37;6.00;99.90
10889;DHT22;5497;51.388;6.780;2023-04-15T04:01:05;6.00;99.90
10889;DHT22;5497;51.388;6.780;2023-04-15T04:03:32;5.90;99.90
10889;DHT22;5497;51.388;6.780;2023-04-15T04:05:59;5.90;99.90
10889;DHT22;5497;51.388;6.780;2023-04-15T04:08:25;5.90;99.90
10889;DHT22;5497;51.388;6.780;2023-04-15T04:10:52;5.90;99.90
10889;DHT22;5497;51.388;6.780;2023-04-15T04:13:19;5.90;99.90
10889;DHT22;5497;51.388;6.780;2023-04-15T04:15:46;5.80;99.90
10889;DHT22;5497;51.388;6.780;2023-04-15T04:18:14;5.90;99.90
10889;DHT22;5497;51.388;6.780;2023-04-15T04:20:41;5.80;99.90
10889;DHT22;5497;51.388;6.780;2023-04-15T04:23:08;5.90;99.90
10889;DHT22;5497;51.388;6.780;2023-04-15T04:25:35;5.80;99.90
10889;DHT22;5497;51.388;6.780;2023-04-15T04:28:02;5.90;99.90
10889;DHT22;5497;51.388;6.780;2023-04-15T04:30:29;5.90;99.90
10889;DHT22;5497;51.388;6.780;2023-04-15T04:32:56;5.90;99.90
10889;DHT22;5497;51.388;6.780;2023-04-15T04:35:24;5.90;99.90
10889;DHT22;5497;51.388;6.780;2023-04-15T04:37:51;5.90;99.90
10889;DHT22;5497;51.388;6.780;2023-04-15T04:40:19;5.90;99.90
10889;DHT22;5497;51.388;6.780;2023-04-15T04:42:46;5.90;99.90
10889;DHT22;5497;51.388;6.780;2023-04-15T04:45:13;5.90;99.90
10889;DHT22;5497;51.388;6.780;2023-04-15T04:47:40;5.80;99.90
10889;DHT22;5497;51.388;6.780;2023-04-15T04:50:07;5.80;99.90
10889;DHT22;5497;51.388;6.780;2023-04-15T04:52:36;5.80;99.90
10889;DHT22;5497;51.388;6.780;2023-04-15T04:55:03;5.80;99.90
10889;DHT22;5497;51.388;6.780;2023-04-15T04:57:30;5.80;99.90
10889;DHT22;5497;51.388;6.780;2023-04-15T04:59:57;5.90;99.90
10889;DHT22;5497;51.388;6.780;2023-04-15T05:02:24;5.90;99.90
10889;DHT22;5497;51.388;6.780;2023-04-15T05:04:51;5.90;99.90
10889;DHT22;5497;51.388;6.780;2023-04-15T05:07:19;5.90;99.90
10889;DHT22;5497;51.388;6.780;2023-04-15T05:09:48;6.00;99.90
10889;DHT22;5497;51.388;6.780;2023-04-15T05:12:14;6.00;99.90
10889;DHT22;5497;51.388;6.780;2023-04-15T05:14:42;6.10;99.90
10889;DHT22;5497;51.388;6.780;2023-04-15T05:17:11;6.10;99.90
10889;DHT22;5497;51.388;6.780;2023-04-15T05:19:38;6.10;99.90
10889;DHT22;5497;51.388;6.780;2023-04-15T05:22:05;6.20;99.90
10889;DHT22;5497;51.388;6.780;2023-04-15T05:24:32;6.30;99.90
10889;DHT22;5497;51.388;6.780;2023-04-15T05:27:00;6.30;99.90
10889;DHT22;5497;51.388;6.780;2023-04-15T05:29:27;6.40;99.90
10889;DHT22;5497;51.388;6.780;2023-04-15T05:31:54;6.50;99.90
10889;DHT22;5497;51.388;6.780;2023-04-15T05:34:21;6.60;99.90
10889;DHT22;5497;51.388;6.780;2023-04-15T05:36:48;6.70;99.90
10889;DHT22;5497;51.388;6.780;2023-04-15T05:39:15;6.90;99.90
10889;DHT22;5497;51.388;6.780;2023-04-15T05:41:42;7.40;99.90
10889;DHT22;5497;51.388;6.780;2023-04-15T05:44:10;8.00;99.90
10889;DHT22;5497;51.388;6.780;2023-04-15T05:46:37;8.80;99.90
10889;DHT22;5497;51.388;6.780;2023-04-15T05:49:04;9.60;99.90
10889;DHT22;5497;51.388;6.780;2023-04-15T05:51:30;10.60;99.90
10889;DHT22;5497;51.388;6.780;2023-04-15T05:53:58;11.30;99.90
10889;DHT22;5497;51.388;6.780;2023-04-15T05:56:25;12.00;99.90
10889;DHT22;5497;51.388;6.780;2023-04-15T05:58:52;12.60;99.90
10889;DHT22;5497;51.388;6.780;2023-04-15T06:01:21;13.20;99.90
10889;DHT22;5497;51.388;6.780;2023-04-15T06:03:48;14.00;99.90
10889;DHT22;5497;51.388;6.780;2023-04-15T06:06:15;14.50;99.90
10889;DHT22;5497;51.388;6.780;2023-04-15T06:08:43;14.70;99.90
10889;DHT22;5497;51.388;6.780;2023-04-15T06:11:09;14.90;99.90
10889;DHT22;5497;51.388;6.780;2023-04-15T06:13:36;15.00;99.90
10889;DHT22;5497;51.388;6.780;2023-04-15T06:16:03;15.20;99.90
10889;DHT22;5497;51.388;6.780;2023-04-15T06:18:35;15.10;99.90
10889;DHT22;5497;51.388;6.780;2023-04-15T06:21:02;14.60;99.90
10889;DHT22;5497;51.388;6.780;2023-04-15T06:23:33;14.40;99.90
10889;DHT22;5497;51.388;6.780;2023-04-15T06:26:01;14.60;99.90
10889;DHT22;5497;51.388;6.780;2023-04-15T06:28:28;14.60;99.90
10889;DHT22;5497;51.388;6.780;2023-04-15T06:30:55;15.10;99.90
10889;DHT22;5497;51.388;6.780;2023-04-15T06:33:22;15.40;99.90
10889;DHT22;5497;51.388;6.780;2023-04-15T06:35:50;15.70;99.90
10889;DHT22;5497;51.388;6.780;2023-04-15T06:38:18;15.80;99.90
10889;DHT22;5497;51.388;6.780;2023-04-15T06:40:45;15.80;99.90
10889;DHT22;5497;51.388;6.780;2023-04-15T06:43:12;15.90;99.90
10889;DHT22;5497;51.388;6.780;2023-04-15T06:45:40;16.40;99.90
10889;DHT22;5497;51.388;6.780;2023-04-15T06:48:06;16.90;99.90
10889;DHT22;5497;51.388;6.780;2023-04-15T06:50:33;16.80;99.90
10889;DHT22;5497;51.388;6.780;2023-04-15T06:53:02;16.50;99.90
10889;DHT22;5497;51.388;6.780;2023-04-15T06:55:29;16.10;99.90
10889;DHT22;5497;51.388;6.780;2023-04-15T06:57:56;16.30;99.90
10889;DHT22;5497;51.388;6.780;2023-04-15T07:00:22;16.20;99.90
10889;DHT22;5497;51.388;6.780;2023-04-15T07:02:50;16.70;99.90
10889;DHT22;5497;51.388;6.780;2023-04-15T07:05:17;16.90;99.90
10889;DHT22;5497;51.388;6.780;2023-04-15T07:07:44;17.40;99.90
10889;DHT22;5497;51.388;6.780;2023-04-15T07:10:13;17.80;99.90
10889;DHT22;5497;51.388;6.780;2023-04-15T07:12:41;17.70;99.90
10889;DHT22;5497;51.388;6.780;2023-04-15T07:15:09;17.40;99.90
10889;DHT22;5497;51.388;6.780;2023-04-15T07:17:36;17.50;99.90
10889;DHT22;5497;51.388;6.780;2023-04-15T07:20:03;17.80;99.90
10889;DHT22;5497;51.388;6.780;2023-04-15T07:22:30;17.70;99.90
10889;DHT22;5497;51.388;6.780;2023-04-15T07:24:57;18.00;99.90
10889;DHT22;5497;51.388;6.780;2023-04-15T07:27:26;18.00;99.90
10889;DHT22;5497;51.388;6.780;2023-04-15T07:29:53;18.20;99.90
10889;DHT22;5497;51.388;6.780;2023-04-15T07:32:20;17.90;99.90
10889;DHT22;5497;51.388;6.780;2023-04-15T07:34:47;17.60;99.90
10889;DHT22;5497;51.388;6.780;2023-04-15T07:37:14;17.00;99.90
10889;DHT22;5497;51.388;6.780;2023-04-15T07:39:42;16.70;99.90
10889;DHT22;5497;51.388;6.780;2023-04-15T07:42:09;16.40;99.90
10889;DHT22;5497;51.388;6.780;2023-04-15T07:44:37;16.20;99.90
10889;DHT22;5497;51.388;6.780;2023-04-15T07:47:04;16.00;99.90
10889;DHT22;5497;51.388;6.780;2023-04-15T07:49:31;15.90;99.90
10889;DHT22;5497;51.388;6.780;2023-04-15T07:51:58;15.60;99.90
10889;DHT22;5497;51.388;6.780;2023-04-15T07:54:25;15.30;99.90
10889;DHT22;5497;51.388;6.780;2023-04-15T07:56:52;15.10;99.90
10889;DHT22;5497;51.388;6.780;2023-04-15T07:59:19;15.10;99.90
10889;DHT22;5497;51.388;6.780;2023-04-15T08:01:47;15.10;99.90
10889;DHT22;5497;51.388;6.780;2023-04-15T08:04:14;15.20;99.90
10889;DHT22;5497;51.388;6.780;2023-04-15T08:06:41;15.30;99.90
10889;DHT22;5497;51.388;6.780;2023-04-15T08:09:08;15.20;99.90
10889;DHT22;5497;51.388;6.780;2023-04-15T08:11:35;15.00;99.90
10889;DHT22;5497;51.388;6.780;2023-04-15T08:14:02;15.10;99.90
10889;DHT22;5497;51.388;6.780;2023-04-15T08:16:29;15.10;99.90
10889;DHT22;5497;51.388;6.780;2023-04-15T08:18:57;15.20;99.90
10889;DHT22;5497;51.388;6.780;2023-04-15T08:21:24;15.20;99.90
10889;DHT22;5497;51.388;6.780;2023-04-15T08:23:52;15.40;99.90
10889;DHT22;5497;51.388;6.780;2023-04-15T08:26:19;15.60;99.90
10889;DHT22;5497;51.388;6.780;2023-04-15T08:28:46;16.10;99.90
10889;DHT22;5497;51.388;6.780;2023-04-15T08:31:13;16.40;99.90
10889;DHT22;5497;51.388;6.780;2023-04-15T08:33:41;17.00;99.90
10889;DHT22;5497;51.388;6.780;2023-04-15T08:36:09;17.20;99.90
10889;DHT22;5497;51.388;6.780;2023-04-15T08:38:36;17.10;99.90
10889;DHT22;5497;51.388;6.780;2023-04-15T08:41:06;17.20;99.90
10889;DHT22;5497;51.388;6.780;2023-04-15T08:43:33;17.40;99.90
10889;DHT22;5497;51.388;6.780;2023-04-15T08:46:01;17.60;99.90
10889;DHT22;5497;51.388;6.780;2023-04-15T08:48:31;17.40;99.90
10889;DHT22;5497;51.388;6.780;2023-04-15T08:50:58;17.10;99.90
10889;DHT22;5497;51.388;6.780;2023-04-15T08:53:27;16.80;99.90
10889;DHT22;5497;51.388;6.780;2023-04-15T08:55:54;16.40;99.90
10889;DHT22;5497;51.388;6.780;2023-04-15T08:58:23;15.80;99.90
10889;DHT22;5497;51.388;6.780;2023-04-15T09:00:50;15.50;99.90
10889;DHT22;5497;51.388;6.780;2023-04-15T09:03:16;15.30;99.90
10889;DHT22;5497;51.388;6.780;2023-04-15T09:05:44;15.10;99.90
10889;DHT22;5497;51.388;6.780;2023-04-15T09:08:11;15.10;99.90
10889;DHT22;5497;51.388;6.780;2023-04-15T09:10:39;15.10;99.90
10889;DHT22;5497;51.388;6.780;2023-04-15T09:13:06;15.10;99.90
10889;DHT22;5497;51.388;6.780;2023-04-15T09:15:33;15.20;99.90
10889;DHT22;5497;51.388;6.780;2023-04-15T09:18:04;15.40;99.90
10889;DHT22;5497;51.388;6.780;2023-04-15T09:20:38;15.80;99.90
10889;DHT22;5497;51.388;6.780;2023-04-15T09:23:13;16.60;99.90
10889;DHT22;5497;51.388;6.780;2023-04-15T09:25:41;17.20;99.90
10889;DHT22;5497;51.388;6.780;2023-04-15T09:28:08;17.40;99.90
10889;DHT22;5497;51.388;6.780;2023-04-15T09:30:35;17.20;99.90
10889;DHT22;5497;51.388;6.780;2023-04-15T09:33:02;17.00;99.90
10889;DHT22;5497;51.388;6.780;2023-04-15T09:35:32;17.00;99.90
10889;DHT22;5497;51.388;6.780;2023-04-15T09:38:01;17.00;99.90
10889;DHT22;5497;51.388;6.780;2023-04-15T09:40:31;16.70;99.90
10889;DHT22;5497;51.388;6.780;2023-04-15T09:43:00;16.80;99.90
10889;DHT22;5497;51.388;6.780;2023-04-15T09:45:28;17.00;99.90
10889;DHT22;5497;51.388;6.780;2023-04-15T09:47:55;17.30;99.90
10889;DHT22;5497;51.388;6.780;2023-04-15T09:50:22;17.40;99.90
10889;DHT22;5497;51.388;6.780;2023-04-15T09:52:53;17.50;99.90
10889;DHT22;5497;51.388;6.780;2023-04-15T09:55:20;17.10;99.90
10889;DHT22;5497;51.388;6.780;2023-04-15T09:57:48;16.90;99.90
10889;DHT22;5497;51.388;6.780;2023-04-15T10:00:17;16.80;99.90
10889;DHT22;5497;51.388;6.780;2023-04-15T10:02:44;16.70;99.90
10889;DHT22;5497;51.388;6.780;2023-04-15T10:05:13;16.70;99.90
10889;DHT22;5497;51.388;6.780;2023-04-15T10:07:43;16.60;99.90
10889;DHT22;5497;51.388;6.780;2023-04-15T10:10:10;16.60;99.90
10889;DHT22;5497;51.388;6.780;2023-04-15T10:12:37;16.60;99.90
10889;DHT22;5497;51.388;6.780;2023-04-15T10:15:07;16.50;99.90
10889;DHT22;5497;51.388;6.780;2023-04-15T10:17:37;16.70;99.90
10889;DHT22;5497;51.388;6.780;2023-04-15T10:20:04;16.90;99.90
10889;DHT22;5497;51.388;6.780;2023-04-15T10:22:32;16.90;99.90
10889;DHT22;5497;51.388;6.780;2023-04-15T10:24:59;16.90;99.90
10889;DHT22;5497;51.388;6.780;2023-04-15T10:27:28;16.80;99.90
10889;DHT22;5497;51.388;6.780;2023-04-15T10:29:56;16.30;99.90
10889;DHT22;5497;51.388;6.780;2023-04-15T10:32:23;16.10;99.90
10889;DHT22;5497;51.388;6.780;2023-04-15T10:34:52;16.20;99.90
10889;DHT22;5497;51.388;6.780;2023-04-15T10:37:19;16.50;99.90
10889;DHT22;5497;51.388;6.780;2023-04-15T10:39:46;16.60;99.90
10889;DHT22;5497;51.388;6.780;2023-04-15T10:42:14;16.20;99.90
10889;DHT22;5497;51.388;6.780;2023-04-15T10:44:42;15.90;99.90
10889;DHT22;5497;51.388;6.780;2023-04-15T10:47:09;15.70;99.90
10889;DHT22;5497;51.388;6.780;2023-04-15T10:49:44;15.70;99.90
10889;DHT22;5497;51.388;6.780;2023-04-15T10:52:13;15.40;99.90
10889;DHT22;5497;51.388;6.780;2023-04-15T10:54:40;15.20;99.90
10889;DHT22;5497;51.388;6.780;2023-04-15T10:57:07;15.10;99.90
10889;DHT22;5497;51.388;6.780;2023-04-15T10:59:35;15.10;99.90
10889;DHT22;5497;51.388;6.780;2023-04-15T11:02:03;14.80;99.90
10889;DHT22;5497;51.388;6.780;2023-04-15T11:09:59;14.50;99.90
10889;DHT22;5497;51.388;6.780;2023-04-15T11:12:32;14.50;99.90
10889;DHT22;5497;51.388;6.780;2023-04-15T11:15:00;14.50;99.90
10889;DHT22;5497;51.388;6.780;2023-04-15T11:17:48;14.70;99.90
10889;DHT22;5497;51.388;6.780;2023-04-15T11:20:15;15.10;99.90
10889;DHT22;5497;51.388;6.780;2023-04-15T11:22:46;15.40;99.90
10889;DHT22;5497;51.388;6.780;2023-04-15T11:25:22;15.30;99.90
10889;DHT22;5497;51.388;6.780;2023-04-15T11:27:50;15.20;99.90
10889;DHT22;5497;51.388;6.780;2023-04-15T11:30:19;14.90;99.90
10889;DHT22;5497;51.388;6.780;2023-04-15T11:32:47;14.90;99.90
10889;DHT22;5497;51.388;6.780;2023-04-15T11:35:15;15.10;99.90
10889;DHT22;5497;51.388;6.780;2023-04-15T11:37:46;15.20;99.90
10889;DHT22;5497;51.388;6.780;2023-04-15T11:40:14;15.30;99.90
10889;DHT22;5497;51.388;6.780;2023-04-15T11:42:48;15.30;99.90
10889;DHT22;5497;51.388;6.780;2023-04-15T11:45:29;15.30;99.90
10889;DHT22;5497;51.388;6.780;2023-04-15T11:48:03;15.50;99.90
10889;DHT22;5497;51.388;6.780;2023-04-15T11:50:31;15.30;99.90
10889;DHT22;5497;51.388;6.780;2023-04-15T11:52:58;15.60;99.90
10889;DHT22;5497;51.388;6.780;2023-04-15T11:55:54;16.00;99.90
10889;DHT22;5497;51.388;6.780;2023-04-15T11:58:34;16.20;99.90
10889;DHT22;5497;51.388;6.780;2023-04-15T12:01:13;16.10;99.90
10889;DHT22;5497;51.388;6.780;2023-04-15T12:03:49;16.00;99.90
10889;DHT22;5497;51.388;6.780;2023-04-15T12:06:17;15.60;99.90
10889;DHT22;5497;51.388;6.780;2023-04-15T12:08:56;15.30;99.90
10889;DHT22;5497;51.388;6.780;2023-04-15T12:11:32;15.60;99.90
10889;DHT22;5497;51.388;6.780;2023-04-15T12:14:05;16.00;99.90
10889;DHT22;5497;51.388;6.780;2023-04-15T12:16:32;16.20;99.90
10889;DHT22;5497;51.388;6.780;2023-04-15T12:19:01;16.10;99.90
10889;DHT22;5497;51.388;6.780;2023-04-15T12:21:32;16.00;99.90
10889;DHT22;5497;51.388;6.780;2023-04-15T12:24:01;16.00;99.90
10889;DHT22;5497;51.388;6.780;2023-04-15T12:26:31;15.60;99.90
10889;DHT22;5497;51.388;6.780;2023-04-15T12:28:59;15.30;99.90
10889;DHT22;5497;51.388;6.780;2023-04-15T12:31:28;15.10;99.90
10889;DHT22;5497;51.388;6.780;2023-04-15T12:33:55;14.90;99.90
10889;DHT22;5497;51.388;6.780;2023-04-15T12:36:22;14.90;99.90
10889;DHT22;5497;51.388;6.780;2023-04-15T12:38:49;15.00;99.90
10889;DHT22;5497;51.388;6.780;2023-04-15T12:41:17;15.20;99.90
10889;DHT22;5497;51.388;6.780;2023-04-15T12:43:44;15.40;99.90
10889;DHT22;5497;51.388;6.780;2023-04-15T12:46:11;15.20;99.90
10889;DHT22;5497;51.388;6.780;2023-04-15T12:48:48;14.80;99.90
10889;DHT22;5497;51.388;6.780;2023-04-15T12:51:15;14.60;99.90
10889;DHT22;5497;51.388;6.780;2023-04-15T12:53:43;14.30;99.90
10889;DHT22;5497;51.388;6.780;2023-04-15T12:56:09;14.20;99.90
10889;DHT22;5497;51.388;6.780;2023-04-15T12:58:37;14.10;99.90
10889;DHT22;5497;51.388;6.780;2023-04-15T13:01:04;14.20;99.90
10889;DHT22;5497;51.388;6.780;2023-04-15T13:03:31;14.20;99.90
10889;DHT22;5497;51.388;6.780;2023-04-15T13:06:00;14.20;99.90
10889;DHT22;5497;51.388;6.780;2023-04-15T13:08:29;14.20;99.90
10889;DHT22;5497;51.388;6.780;2023-04-15T13:10:56;14.40;99.90
10889;DHT22;5497;51.388;6.780;2023-04-15T13:13:23;14.50;99.90
10889;DHT22;5497;51.388;6.780;2023-04-15T13:15:50;14.60;99.90
10889;DHT22;5497;51.388;6.780;2023-04-15T13:18:17;14.40;99.90
10889;DHT22;5497;51.388;6.780;2023-04-15T13:20:44;14.20;99.90
10889;DHT22;5497;51.388;6.780;2023-04-15T13:23:13;13.90;99.90
10889;DHT22;5497;51.388;6.780;2023-04-15T13:25:40;13.60;99.90
10889;DHT22;5497;51.388;6.780;2023-04-15T13:28:07;13.40;99.90
10889;DHT22;5497;51.388;6.780;2023-04-15T13:30:36;13.30;99.90
10889;DHT22;5497;51.388;6.780;2023-04-15T13:33:03;13.40;99.90
10889;DHT22;5497;51.388;6.780;2023-04-15T13:35:30;13.30;99.90
10889;DHT22;5497;51.388;6.780;2023-04-15T13:37:58;13.40;99.90
10889;DHT22;5497;51.388;6.780;2023-04-15T13:40:27;13.30;99.90
10889;DHT22;5497;51.388;6.780;2023-04-15T13:42:54;13.40;99.90
10889;DHT22;5497;51.388;6.780;2023-04-15T13:45:22;13.30;99.90
10889;DHT22;5497;51.388;6.780;2023-04-15T13:47:49;13.30;99.90
10889;DHT22;5497;51.388;6.780;2023-04-15T13:50:17;13.30;99.90
10889;DHT22;5497;51.388;6.780;2023-04-15T13:52:45;13.30;99.90
10889;DHT22;5497;51.388;6.780;2023-04-15T13:55:12;13.30;99.90
10889;DHT22;5497;51.388;6.780;2023-04-15T13:57:41;13.30;99.90
10889;DHT22;5497;51.388;6.780;2023-04-15T14:00:09;13.30;99.90
10889;DHT22;5497;51.388;6.780;2023-04-15T14:02:37;13.30;99.90
10889;DHT22;5497;51.388;6.780;2023-04-15T14:05:04;13.20;99.90
10889;DHT22;5497;51.388;6.780;2023-04-15T14:07:31;13.10;99.90
10889;DHT22;5497;51.388;6.780;2023-04-15T14:09:58;13.10;99.90
10889;DHT22;5497;51.388;6.780;2023-04-15T14:12:26;13.10;99.90
10889;DHT22;5497;51.388;6.780;2023-04-15T14:14:55;13.10;99.90
10889;DHT22;5497;51.388;6.780;2023-04-15T14:17:24;12.90;99.90
10889;DHT22;5497;51.388;6.780;2023-04-15T14:19:56;12.80;99.90
10889;DHT22;5497;51.388;6.780;2023-04-15T14:22:23;12.80;99.90
10889;DHT22;5497;51.388;6.780;2023-04-15T14:24:50;12.90;99.90
10889;DHT22;5497;51.388;6.780;2023-04-15T14:27:18;12.80;99.90
10889;DHT22;5497;51.388;6.780;2023-04-15T14:29:45;12.70;99.90
10889;DHT22;5497;51.388;6.780;2023-04-15T14:32:13;12.60;99.90
10889;DHT22;5497;51.388;6.780;2023-04-15T14:34:40;12.50;99.90
10889;DHT22;5497;51.388;6.780;2023-04-15T14:37:07;12.50;99.90
10889;DHT22;5497;51.388;6.780;2023-04-15T14:39:35;12.40;99.90
10889;DHT22;5497;51.388;6.780;2023-04-15T14:42:02;12.50;99.90
10889;DHT22;5497;51.388;6.780;2023-04-15T14:44:29;12.60;99.90
10889;DHT22;5497;51.388;6.780;2023-04-15T14:46:56;12.70;99.90
10889;DHT22;5497;51.388;6.780;2023-04-15T14:49:25;12.70;99.90
10889;DHT22;5497;51.388;6.780;2023-04-15T14:51:52;12.70;99.90
10889;DHT22;5497;51.388;6.780;2023-04-15T14:54:20;12.70;99.90
10889;DHT22;5497;51.388;6.780;2023-04-15T14:56:47;12.60;99.90
10889;DHT22;5497;51.388;6.780;2023-04-15T14:59:14;12.50;99.90
10889;DHT22;5497;51.388;6.780;2023-04-15T15:01:41;12.40;99.90
10889;DHT22;5497;51.388;6.780;2023-04-15T15:04:08;12.30;99.90
10889;DHT22;5497;51.388;6.780;2023-04-15T15:06:37;12.20;99.90
10889;DHT22;5497;51.388;6.780;2023-04-15T15:09:05;12.20;99.90
10889;DHT22;5497;51.388;6.780;2023-04-15T15:11:33;12.10;99.90
10889;DHT22;5497;51.388;6.780;2023-04-15T15:14:01;12.10;99.90
10889;DHT22;5497;51.388;6.780;2023-04-15T15:16:28;12.00;99.90
10889;DHT22;5497;51.388;6.780;2023-04-15T15:18:56;12.00;99.90
10889;DHT22;5497;51.388;6.780;2023-04-15T15:21:23;12.00;99.90
10889;DHT22;5497;51.388;6.780;2023-04-15T15:23:52;12.10;99.90
10889;DHT22;5497;51.388;6.780;2023-04-15T15:26:19;12.00;99.90
10889;DHT22;5497;51.388;6.780;2023-04-15T15:28:46;11.70;99.90
10889;DHT22;5497;51.388;6.780;2023-04-15T15:31:18;11.40;99.90
10889;DHT22;5497;51.388;6.780;2023-04-15T15:33:45;11.20;99.90
10889;DHT22;5497;51.388;6.780;2023-04-15T15:36:12;11.00;99.90
10889;DHT22;5497;51.388;6.780;2023-04-15T15:38:39;11.00;99.90
10889;DHT22;5497;51.388;6.780;2023-04-15T15:41:07;11.00;99.90
10889;DHT22;5497;51.388;6.780;2023-04-15T15:43:34;11.00;99.90
10889;DHT22;5497;51.388;6.780;2023-04-15T15:46:02;11.00;99.90
10889;DHT22;5497;51.388;6.780;2023-04-15T15:48:29;11.00;99.90
10889;DHT22;5497;51.388;6.780;2023-04-15T15:50:56;10.90;99.90
10889;DHT22;5497;51.388;6.780;2023-04-15T15:53:23;10.90;99.90
10889;DHT22;5497;51.388;6.780;2023-04-15T15:55:51;10.90;99.90
10889;DHT22;5497;51.388;6.780;2023-04-15T15:58:20;10.80;99.90
10889;DHT22;5497;51.388;6.780;2023-04-15T16:00:47;10.70;99.90
10889;DHT22;5497;51.388;6.780;2023-04-15T16:03:14;10.70;99.90
10889;DHT22;5497;51.388;6.780;2023-04-15T16:05:42;10.70;99.90